Time;durP1;ratioP1;P1;durP2;ratioP2;P2;SDS_P1;SDS_P2;PMS_P1;PMS_P2;Temp;Humidity;BMP_temperature;BMP_pressure;BME280_temperature;BME280_humidity;BME280_pressure;Samples;Min_cycle;Max_cycle;Signal;HPM_P1;HPM_P2
2022/01/22 00:00:09;;;;;;;28.37;3.10;;;;;;;3.82;100.00;98930.88;5120364;28;20619;-75
2022/01/22 00:02:36;;;;;;;31.83;3.07;;;;;;;3.88;100.00;98918.69;5117316;28;20604;-75
2022/01/22 00:05:05;;;;;;;26.03;2.80;;;;;;;3.76;100.00;98915.78;5118220;28;20616;-75
2022/01/22 00:07:32;;;;;;;46.37;3.70;;;;;;;3.73;100.00;98910.91;5120034;28;20677;-75
2022/01/22 00:10:03;;;;;;;53.57;4.87;;;;;;;3.88;100.00;98905.47;5126000;28;20592;-75
2022/01/22 00:12:45;;;;;;;35.83;3.37;;;;;;;3.93;100.00;98893.31;5122783;28;20931;-75
2022/01/22 00:15:14;;;;;;;33.97;4.00;;;;;;;3.85;100.00;98892.66;5122383;28;20628;-75
2022/01/22 00:17:41;;;;;;;32.17;3.37;;;;;;;3.75;100.00;98893.03;5113596;28;20612;-75
2022/01/22 00:20:09;;;;;;;44.23;3.23;;;;;;;3.76;100.00;98878.81;5113530;28;20613;-75
2022/01/22 00:22:37;;;;;;;60.80;4.70;;;;;;;3.79;100.00;98883.69;5112228;28;20612;-75
2022/01/22 00:25:08;;;;;;;35.13;3.67;;;;;;;3.87;100.00;98886.16;5124920;28;20608;-75
2022/01/22 00:27:37;;;;;;;38.30;3.50;;;;;;;3.75;100.00;98880.63;5114018;28;20608;-75
2022/01/22 00:30:04;;;;;;;50.67;4.60;;;;;;;3.76;100.00;98884.91;5113714;28;20593;-75
2022/01/22 00:32:31;;;;;;;48.43;4.10;;;;;;;3.53;100.00;98871.16;5124203;28;20612;-75
2022/01/22 00:34:58;;;;;;;19.57;2.10;;;;;;;3.75;100.00;98880.63;5124838;28;20701;-75
2022/01/22 00:37:25;;;;;;;39.27;4.27;;;;;;;3.74;100.00;98875.56;5122933;28;20631;-75
2022/01/22 00:39:52;;;;;;;24.20;2.33;;;;;;;3.79;100.00;98871.31;5121708;28;20626;-75
2022/01/22 00:42:20;;;;;;;27.30;2.57;;;;;;;3.63;100.00;98884.84;5120797;28;20608;-75
2022/01/22 00:44:49;;;;;;;28.17;2.60;;;;;;;3.69;100.00;98864.75;5124038;28;20612;-75
2022/01/22 00:47:16;;;;;;;33.13;3.27;;;;;;;3.63;100.00;98865.53;5125708;28;21020;-75
2022/01/22 00:49:43;;;;;;;18.27;2.63;;;;;;;3.70;100.00;98866.38;5120580;28;20605;-75
2022/01/22 00:52:10;;;;;;;27.10;2.70;;;;;;;3.62;100.00;98867.34;5121530;28;20608;-75
2022/01/22 00:54:36;;;;;;;60.50;4.10;;;;;;;3.61;100.00;98871.03;5129728;28;20625;-75
2022/01/22 00:57:04;;;;;;;37.00;3.20;;;;;;;3.54;100.00;98864.06;5120075;28;20604;-75
2022/01/22 00:59:30;;;;;;;19.83;2.50;;;;;;;3.59;100.00;98856.38;5123569;28;20600;-75
2022/01/22 01:01:59;;;;;;;32.20;2.63;;;;;;;3.55;100.00;98865.69;5123598;28;20595;-75
2022/01/22 01:04:27;;;;;;;42.50;3.40;;;;;;;3.52;100.00;98850.25;5122245;28;20603;-75
2022/01/22 01:06:55;;;;;;;46.10;3.43;;;;;;;3.56;100.00;98854.91;5121411;28;20612;-75
2022/01/22 01:09:22;;;;;;;15.57;1.70;;;;;;;3.64;100.00;98848.69;5121025;28;20624;-75
2022/01/22 01:11:52;;;;;;;31.83;2.80;;;;;;;3.63;100.00;98852.31;5124781;28;20653;-75
2022/01/22 01:14:26;;;;;;;31.30;2.70;;;;;;;3.72;100.00;98856.44;5122998;28;21009;-75
2022/01/22 01:17:09;;;;;;;53.57;4.17;;;;;;;3.57;100.00;98847.81;5121533;28;20608;-75
2022/01/22 01:33:29;;;;;;;21.20;2.00;;;;;;;3.66;100.00;98831.63;5123278;28;20622;-75
2022/01/22 01:35:57;;;;;;;29.47;2.40;;;;;;;3.59;100.00;98825.47;5119962;28;20592;-75
2022/01/22 01:38:24;;;;;;;20.93;2.10;;;;;;;3.62;100.00;98824.28;5122099;28;20604;-75
2022/01/22 01:40:59;;;;;;;10.93;1.50;;;;;;;3.64;100.00;98827.53;5124329;28;20618;-75
2022/01/22 01:43:32;;;;;;;10.53;1.67;;;;;;;3.60;100.00;98824.47;5121790;28;21452;-75
2022/01/22 01:45:58;;;;;;;35.00;2.80;;;;;;;3.64;100.00;98832.81;5120414;28;20623;-75
2022/01/22 01:48:29;;;;;;;44.40;3.07;;;;;;;3.64;100.00;98822.25;5121806;28;20596;-75
2022/01/22 01:50:59;;;;;;;41.70;3.33;;;;;;;3.70;100.00;98816.19;5124040;28;21006;-75
2022/01/22 01:53:42;;;;;;;44.70;3.67;;;;;;;3.72;100.00;98816.78;5122536;28;20600;-75
2022/01/22 01:58:51;;;;;;;29.73;2.23;;;;;;;3.77;100.00;98819.69;5111931;28;20612;-75
2022/01/22 02:01:17;;;;;;;56.57;3.90;;;;;;;3.74;100.00;98805.00;5110547;28;20624;-75
2022/01/22 02:03:44;;;;;;;25.20;2.03;;;;;;;3.70;100.00;98826.75;5110552;28;20658;-75
2022/01/22 02:06:12;;;;;;;40.07;3.10;;;;;;;3.75;100.00;98825.16;5111833;28;20600;-75
2022/01/22 02:08:40;;;;;;;25.47;2.47;;;;;;;3.83;100.00;98821.53;5112230;28;20620;-75
2022/01/22 02:11:07;;;;;;;38.10;3.10;;;;;;;3.77;100.00;98827.59;5119770;28;20609;-75
2022/01/22 02:13:58;;;;;;;39.97;4.17;;;;;;;3.79;100.00;98831.69;5123225;28;20604;-75
2022/01/22 02:24:43;;;;;;;38.43;3.57;;;;;;;3.67;100.00;98827.97;5124102;28;20972;-75
2022/01/22 02:27:09;;;;;;;45.00;3.70;;;;;;;3.60;100.00;98811.28;5119710;28;20612;-75
2022/01/22 02:29:36;;;;;;;40.07;4.17;;;;;;;3.69;100.00;98828.59;5122267;28;20608;-75
2022/01/22 02:32:25;;;;;;;73.17;4.90;;;;;;;3.69;100.00;98820.66;5123738;28;20611;-75
2022/01/22 02:34:54;;;;;;;63.43;4.83;;;;;;;3.78;100.00;98823.94;5120382;28;20609;-75
2022/01/22 02:37:25;;;;;;;55.63;4.87;;;;;;;3.75;100.00;98824.31;5119142;28;20646;-75
2022/01/22 02:40:01;;;;;;;57.20;4.47;;;;;;;3.83;100.00;98816.25;5123065;28;20607;-75
2022/01/22 02:42:31;;;;;;;29.83;3.10;;;;;;;3.83;100.00;98818.06;5121404;28;20611;-75
2022/01/22 02:44:58;;;;;;;41.80;3.63;;;;;;;3.68;100.00;98818.22;5120202;28;20721;-75
2022/01/22 02:47:24;;;;;;;44.63;3.80;;;;;;;3.72;100.00;98824.72;5121065;28;20597;-75
2022/01/22 02:49:51;;;;;;;51.97;4.03;;;;;;;3.82;100.00;98827.81;5123061;28;20595;-76
2022/01/22 02:52:19;;;;;;;20.33;2.60;;;;;;;3.75;100.00;98813.75;5122795;28;20629;-75
2022/01/22 02:54:49;;;;;;;45.07;4.07;;;;;;;3.77;100.00;98817.03;5123728;28;20600;-75
2022/01/22 02:57:15;;;;;;;49.07;3.93;;;;;;;3.79;100.00;98809.72;5118177;28;20626;-75
2022/01/22 02:59:42;;;;;;;18.37;2.60;;;;;;;3.84;100.00;98807.28;5122038;28;20653;-75
2022/01/22 03:02:12;;;;;;;16.43;2.13;;;;;;;3.84;100.00;98802.00;5121859;28;20587;-75
2022/01/22 03:04:39;;;;;;;51.63;4.57;;;;;;;3.87;100.00;98806.91;5118844;28;20616;-75
2022/01/22 03:07:06;;;;;;;51.03;4.13;;;;;;;3.87;100.00;98814.81;5118595;27;20661;-75
2022/01/22 03:09:40;;;;;;;42.63;3.67;;;;;;;3.86;100.00;98805.28;5122374;28;20609;-76
2022/01/22 03:12:30;;;;;;;28.63;3.13;;;;;;;3.91;100.00;98802.84;5121996;28;20656;-75
2022/01/22 03:15:29;;;;;;;24.17;2.37;;;;;;;3.88;100.00;98808.53;5110843;28;20605;-76
2022/01/22 03:18:01;;;;;;;31.20;2.90;;;;;;;3.90;100.00;98803.06;5110800;28;20616;-76
2022/01/22 03:21:03;;;;;;;35.93;4.13;;;;;;;3.80;100.00;98822.75;5110774;28;20609;-76
2022/01/22 03:29:04;;;;;;;41.07;3.77;;;;;;;3.72;100.00;98825.53;5117333;28;20601;-76
2022/01/22 03:31:32;;;;;;;20.97;2.67;;;;;;;3.75;100.00;98829.63;5120816;28;20593;-76
2022/01/22 03:33:58;;;;;;;32.40;2.83;;;;;;;3.76;100.00;98821.50;5121960;28;20604;-75
2022/01/22 03:36:28;;;;;;;48.63;4.10;;;;;;;3.78;100.00;98814.19;5120810;28;20592;-75
2022/01/22 03:38:55;;;;;;;39.20;3.97;;;;;;;3.80;100.00;98806.06;5119120;28;20608;-75
2022/01/22 03:41:23;;;;;;;26.30;2.97;;;;;;;3.86;100.00;98796.53;5119305;28;21244;-76
2022/01/22 03:43:50;;;;;;;31.67;3.17;;;;;;;3.92;100.00;98793.91;5121850;28;20611;-76
2022/01/22 03:46:18;;;;;;;29.63;2.80;;;;;;;3.90;100.00;98801.22;5121186;28;20608;-76
2022/01/22 03:48:45;;;;;;;22.50;2.93;;;;;;;3.91;100.00;98797.56;5118884;28;20628;-76
2022/01/22 03:51:12;;;;;;;8.20;1.70;;;;;;;3.92;100.00;98804.50;5117914;28;20600;-75
2022/01/22 03:53:39;;;;;;;28.00;2.73;;;;;;;3.84;100.00;98807.28;5126585;28;20925;-75
2022/01/22 03:56:09;;;;;;;49.67;3.90;;;;;;;3.97;100.00;98817.91;5122231;28;21116;-75
2022/01/22 03:58:38;;;;;;;50.83;3.97;;;;;;;3.81;100.00;98813.78;5119052;28;20752;-75
2022/01/22 04:01:31;;;;;;;37.87;3.17;;;;;;;3.93;100.00;98813.25;5118650;28;20638;-76
2022/01/22 04:04:05;;;;;;;52.00;4.03;;;;;;;3.84;100.00;98806.50;5119194;28;21162;-73
2022/01/22 04:09:20;;;;;;;48.77;5.00;;;;;;;3.92;100.00;98815.06;5103340;28;20619;-75
2022/01/22 04:11:47;;;;;;;52.30;4.73;;;;;;;3.96;100.00;98808.34;5118943;28;20628;-75
2022/01/22 04:14:19;;;;;;;11.43;2.20;;;;;;;4.00;100.00;98806.13;5119312;28;20631;-75
2022/01/22 04:16:59;;;;;;;43.03;4.13;;;;;;;4.04;100.00;98805.53;5109616;28;20616;-76
2022/01/22 04:24:56;;;;;;;53.30;5.13;;;;;;;4.11;100.00;98813.50;5122714;28;20597;-75
2022/01/22 04:27:24;;;;;;;55.43;5.37;;;;;;;4.06;100.00;98795.56;5118937;28;20622;-75
2022/01/22 04:29:54;;;;;;;35.93;4.03;;;;;;;3.93;100.00;98800.81;5120377;28;20626;-75
2022/01/22 04:32:21;;;;;;;49.40;4.27;;;;;;;3.96;100.00;98789.84;5119994;28;20613;-75
2022/01/22 04:34:49;;;;;;;26.67;2.70;;;;;;;3.89;100.00;98783.75;5116440;28;20600;-75
2022/01/22 04:37:17;;;;;;;34.00;3.73;;;;;;;3.83;100.00;98781.91;5117210;28;20608;-75
2022/01/22 04:39:45;;;;;;;17.43;3.10;;;;;;;3.83;100.00;98781.09;5121942;28;20599;-76
2022/01/22 04:42:11;;;;;;;21.33;3.30;;;;;;;3.92;100.00;98780.72;5121641;28;20595;-76
2022/01/22 04:44:46;;;;;;;25.63;3.53;;;;;;;3.88;100.00;98776.00;5117124;28;20604;-75
2022/01/22 04:47:27;;;;;;;62.87;5.33;;;;;;;3.82;100.00;98782.91;5117989;28;20607;-75
2022/01/22 04:52:43;;;;;;;31.67;3.40;;;;;;;3.88;100.00;98776.81;5121505;28;20606;-76
2022/01/22 04:55:10;;;;;;;22.00;2.83;;;;;;;3.88;100.00;98786.56;5120499;28;20605;-76
2022/01/22 04:57:38;;;;;;;55.00;5.30;;;;;;;3.90;100.00;98781.94;5123621;28;20611;-75
2022/01/22 05:00:08;;;;;;;33.23;4.33;;;;;;;3.95;100.00;98788.25;5125063;28;20697;-76
2022/01/22 05:02:35;;;;;;;26.30;3.40;;;;;;;3.94;100.00;98780.50;5122660;28;20602;-76
2022/01/22 05:05:03;;;;;;;28.87;3.10;;;;;;;3.90;100.00;98782.72;5120732;28;20613;-75
2022/01/22 05:07:29;;;;;;;45.63;4.40;;;;;;;3.98;100.00;98781.72;5123572;28;20625;-76
2022/01/22 05:09:56;;;;;;;16.07;3.33;;;;;;;3.96;100.00;98774.00;5123962;28;20677;-75
2022/01/22 05:12:23;;;;;;;47.20;4.37;;;;;;;4.00;100.00;98775.22;5122923;28;20616;-75
2022/01/22 05:14:50;;;;;;;40.40;4.50;;;;;;;3.99;100.00;98778.88;5121659;28;20600;-75
2022/01/22 05:17:18;;;;;;;66.17;5.43;;;;;;;3.95;100.00;98768.91;5121436;28;20600;-76
2022/01/22 05:19:51;;;;;;;28.33;3.70;;;;;;;4.00;100.00;98780.50;5125088;28;20596;-76
2022/01/22 05:22:34;;;;;;;45.47;4.63;;;;;;;4.01;100.00;98774.22;5125001;28;20595;-76
2022/01/22 05:25:05;;;;;;;22.57;3.07;;;;;;;3.89;100.00;98773.19;5126308;28;20607;-75
2022/01/22 05:27:47;;;;;;;55.60;4.87;;;;;;;3.97;100.00;98765.06;5123597;28;20604;-76
2022/01/22 05:30:37;;;;;;;30.53;4.40;;;;;;;3.95;100.00;98782.94;5124059;28;20615;-75
2022/01/22 05:33:15;;;;;;;25.90;3.47;;;;;;;3.83;100.00;98773.97;5120112;28;20601;-76
2022/01/22 05:38:31;;;;;;;70.87;6.10;;;;;;;3.92;100.00;98796.56;5123183;28;20604;-75
2022/01/22 05:40:58;;;;;;;15.73;2.77;;;;;;;3.75;100.00;98787.34;5124966;28;20649;-75
2022/01/22 05:43:25;;;;;;;36.40;5.10;;;;;;;3.69;100.00;98796.06;5122549;28;20619;-76
2022/01/22 05:45:53;;;;;;;19.07;3.20;;;;;;;3.90;100.00;98798.56;5121309;28;20589;-76
2022/01/22 05:48:20;;;;;;;53.47;4.30;;;;;;;3.97;100.00;98806.53;5121628;28;20596;-75
2022/01/22 05:50:51;;;;;;;20.30;3.30;;;;;;;3.86;100.00;98801.81;5123691;28;20986;-75
2022/01/22 05:53:33;;;;;;;26.70;3.47;;;;;;;3.84;100.00;98807.28;5124532;27;20600;-76
2022/01/22 06:01:30;;;;;;;38.30;4.57;;;;;;;3.85;100.00;98797.53;5122247;28;20612;-76
2022/01/22 06:03:57;;;;;;;60.73;5.30;;;;;;;3.95;100.00;98801.44;5124637;28;20604;-75
2022/01/22 06:06:24;;;;;;;35.20;4.00;;;;;;;3.95;100.00;98812.03;5122691;28;20592;-76
2022/01/22 06:08:54;;;;;;;47.87;5.03;;;;;;;3.91;100.00;98823.16;5121101;28;20616;-76
2022/01/22 06:11:24;;;;;;;26.67;4.03;;;;;;;3.90;100.00;98813.63;5121870;28;20634;-76
2022/01/22 06:13:52;;;;;;;38.93;5.73;;;;;;;3.91;100.00;98808.13;5125279;28;20595;-75
2022/01/22 06:16:21;;;;;;;32.33;4.33;;;;;;;3.97;100.00;98823.19;5123063;28;20619;-76
2022/01/22 06:18:49;;;;;;;55.10;5.43;;;;;;;3.85;100.00;98822.13;5120937;28;20612;-75
2022/01/22 06:21:16;;;;;;;24.57;3.63;;;;;;;3.81;100.00;98823.53;5119704;28;20812;-76
2022/01/22 06:23:45;;;;;;;20.57;3.13;;;;;;;3.83;100.00;98821.53;5124473;28;20610;-75
2022/01/22 06:26:12;;;;;;;33.80;3.80;;;;;;;3.87;100.00;98829.88;5124562;28;20624;-76
2022/01/22 06:28:41;;;;;;;31.47;4.87;;;;;;;3.93;100.00;98831.75;5121565;27;20616;-76
2022/01/22 06:31:08;;;;;;;35.43;4.13;;;;;;;3.96;100.00;98842.69;5121207;28;20588;-76
2022/01/22 06:33:35;;;;;;;28.80;3.77;;;;;;;3.97;100.00;98833.78;5123913;28;20604;-76
2022/01/22 06:36:01;;;;;;;34.03;4.67;;;;;;;3.92;100.00;98841.50;5123862;28;20914;-76
2022/01/22 06:38:28;;;;;;;28.93;3.83;;;;;;;3.99;100.00;98844.94;5122721;28;20612;-76
2022/01/22 06:43:43;;;;;;;15.73;2.63;;;;;;;4.10;100.00;98848.84;5120241;28;20608;-76
2022/01/22 06:46:09;;;;;;;65.03;5.37;;;;;;;4.15;100.00;98852.53;5120338;28;20729;-76
2022/01/22 06:48:36;;;;;;;20.73;3.40;;;;;;;4.08;100.00;98856.19;5122060;28;20622;-76
2022/01/22 06:51:03;;;;;;;20.10;3.00;;;;;;;4.10;100.00;98868.19;5123063;28;20604;-75
2022/01/22 06:53:29;;;;;;;10.87;3.03;;;;;;;4.13;100.00;98859.84;5123621;28;20588;-76
2022/01/22 06:55:59;;;;;;;23.87;3.83;;;;;;;4.17;100.00;98873.50;5123444;28;20600;-76
2022/01/22 06:58:26;;;;;;;43.70;5.07;;;;;;;4.15;100.00;98870.22;5120514;28;20603;-76
2022/01/22 07:00:54;;;;;;;32.63;4.77;;;;;;;4.07;100.00;98884.44;5119565;28;20627;-76
2022/01/22 07:03:21;;;;;;;17.80;3.20;;;;;;;4.13;100.00;98891.56;5119471;28;20617;-76
2022/01/22 07:05:47;;;;;;;18.77;3.40;;;;;;;4.11;100.00;98880.41;5123795;28;20603;-76
2022/01/22 07:08:14;;;;;;;18.47;2.80;;;;;;;4.12;100.00;98889.94;5122229;28;21392;-76
2022/01/22 07:10:41;;;;;;;32.90;4.03;;;;;;;4.14;100.00;98898.50;5120074;28;20601;-76
2022/01/22 07:13:08;;;;;;;47.23;5.37;;;;;;;4.06;100.00;98903.94;5120172;28;20618;-76
2022/01/22 07:15:35;;;;;;;10.57;2.90;;;;;;;4.12;100.00;98900.50;5122299;28;20601;-76
2022/01/22 07:18:03;;;;;;;17.30;3.77;;;;;;;4.15;100.00;98902.75;5121453;28;20603;-75
2022/01/22 07:20:33;;;;;;;23.97;4.17;;;;;;;4.11;100.00;98904.19;5119535;28;20623;-76
2022/01/22 07:23:13;;;;;;;24.57;4.27;;;;;;;4.12;100.00;98907.63;5122096;28;20616;-76
2022/01/22 07:25:40;;;;;;;11.17;2.80;;;;;;;4.18;100.00;98905.00;5123159;28;20591;-76
2022/01/22 07:28:07;;;;;;;38.07;4.47;;;;;;;4.16;100.00;98917.63;5122838;28;20607;-76
2022/01/22 07:30:34;;;;;;;10.07;2.87;;;;;;;4.21;100.00;98911.72;5120397;28;20686;-76
2022/01/22 07:33:01;;;;;;;24.77;3.30;;;;;;;4.29;100.00;98915.03;5119036;28;20585;-76
2022/01/22 07:35:29;;;;;;;53.17;5.90;;;;;;;4.29;100.00;98922.97;5119985;28;20608;-76
2022/01/22 07:37:56;;;;;;;40.50;4.73;;;;;;;4.20;100.00;98918.88;5122013;28;20608;-76
2022/01/22 07:40:23;;;;;;;18.60;3.10;;;;;;;4.16;100.00;98922.91;5120505;28;20630;-76
2022/01/22 07:42:50;;;;;;;28.50;4.67;;;;;;;4.11;100.00;98920.06;5118887;28;20815;-76
2022/01/22 07:45:16;;;;;;;26.93;4.13;;;;;;;4.19;100.00;98919.03;5119206;28;20596;-76
2022/01/22 07:47:43;;;;;;;21.10;3.10;;;;;;;4.29;100.00;98922.16;5121075;28;20619;-76
2022/01/22 07:50:10;;;;;;;21.77;3.43;;;;;;;4.26;100.00;98920.72;5120989;28;20600;-76
2022/01/22 07:52:38;;;;;;;60.03;5.57;;;;;;;4.31;100.00;98922.75;5118133;28;20597;-76
2022/01/22 07:55:07;;;;;;;22.73;3.10;;;;;;;4.40;100.00;98928.69;5115260;28;20596;-76
2022/01/22 07:57:34;;;;;;;18.77;3.33;;;;;;;4.48;100.00;98931.16;5121660;28;21181;-76
2022/01/22 08:00:00;;;;;;;14.50;3.10;;;;;;;4.38;100.00;98930.72;5122462;28;20643;-76
2022/01/22 08:02:27;;;;;;;39.67;4.80;;;;;;;4.32;100.00;98927.84;5120812;28;20616;-76
2022/01/22 08:04:54;;;;;;;56.27;5.97;;;;;;;4.44;100.00;98935.22;5117652;28;20608;-76
2022/01/22 08:07:21;;;;;;;22.27;3.00;;;;;;;4.49;100.00;98935.44;5118051;28;20597;-76
2022/01/22 08:09:50;;;;;;;19.00;3.67;;;;;;;4.51;100.00;98928.13;5122229;28;20611;-76
2022/01/22 08:12:17;;;;;;;20.93;3.33;;;;;;;4.46;100.00;98935.81;5121874;28;20627;-76
2022/01/22 08:14:44;;;;;;;20.37;3.03;;;;;;;4.55;100.00;98942.59;5118845;28;20650;-76
2022/01/22 08:17:11;;;;;;;18.47;2.80;;;;;;;4.41;100.00;98952.28;5119328;28;20605;-76
2022/01/22 08:19:38;;;;;;;28.70;4.10;;;;;;;4.46;100.00;98955.16;5121843;28;20633;-76
2022/01/22 08:22:05;;;;;;;17.40;3.57;;;;;;;4.47;100.00;98955.97;5122510;28;20588;-76
2022/01/22 08:24:31;;;;;;;37.30;4.20;;;;;;;4.54;100.00;98959.47;5116533;28;20616;-76
2022/01/22 08:27:13;;;;;;;15.00;3.23;;;;;;;4.44;100.00;98954.53;5117736;28;20613;-76
2022/01/22 08:29:40;;;;;;;37.77;4.13;;;;;;;4.50;100.00;98963.50;5123323;28;20660;-76
2022/01/22 08:32:24;;;;;;;16.67;3.23;;;;;;;4.56;100.00;98968.00;5125999;28;20599;-76
2022/01/22 08:37:44;;;;;;;18.13;3.60;;;;;;;4.43;100.00;98978.53;5117822;28;20601;-76
2022/01/22 08:40:14;;;;;;;21.50;3.37;;;;;;;4.30;100.00;98972.19;5122719;28;20615;-76
2022/01/22 08:42:44;;;;;;;93.70;7.30;;;;;;;4.41;100.00;98973.44;5124994;28;20616;-76
2022/01/22 08:45:12;;;;;;;69.07;7.27;;;;;;;4.46;100.00;98975.50;5125492;28;20611;-76
2022/01/22 08:47:39;;;;;;;28.83;4.73;;;;;;;4.53;100.00;98982.44;5121024;28;20604;-76
2022/01/22 08:50:07;;;;;;;54.77;5.67;;;;;;;4.48;100.00;98994.63;5121320;28;20600;-76
2022/01/22 08:52:36;;;;;;;61.63;5.60;;;;;;;4.54;100.00;98991.22;5124158;28;20596;-76
2022/01/22 08:55:02;;;;;;;23.53;3.60;;;;;;;4.51;100.00;98986.31;5119721;28;20630;-75
2022/01/22 08:57:29;;;;;;;23.43;3.63;;;;;;;4.45;100.00;98984.47;5123604;28;20584;-76
2022/01/22 08:59:57;;;;;;;23.67;3.50;;;;;;;4.51;100.00;98988.97;5124996;28;20622;-76
2022/01/22 09:02:24;;;;;;;73.13;5.80;;;;;;;4.53;100.00;98995.66;5123793;28;21248;-75
2022/01/22 09:04:52;;;;;;;50.93;5.93;;;;;;;4.56;100.00;98997.09;5120053;28;20627;-75
2022/01/22 09:07:19;;;;;;;47.70;4.70;;;;;;;4.48;100.00;99011.34;5120590;28;20612;-76
2022/01/22 09:09:48;;;;;;;11.47;2.63;;;;;;;4.51;100.00;99012.75;5123889;28;20600;-76
2022/01/22 09:12:16;;;;;;;26.00;3.23;;;;;;;4.42;100.00;99013.94;5125621;28;21116;-76
2022/01/22 09:14:43;;;;;;;44.07;4.57;;;;;;;4.49;100.00;99020.88;5121013;28;20588;-76
2022/01/22 09:17:11;;;;;;;19.93;2.93;;;;;;;4.56;100.00;99018.25;5121969;28;20597;-76
2022/01/22 09:19:38;;;;;;;15.50;2.87;;;;;;;4.61;100.00;99026.44;5124773;28;20595;-75
2022/01/22 09:22:07;;;;;;;27.13;3.10;;;;;;;4.57;100.00;99030.50;5124710;28;20655;-76
2022/01/22 09:24:34;;;;;;;19.43;3.10;;;;;;;4.57;100.00;99033.97;5117198;28;20622;-76
2022/01/22 09:27:04;;;;;;;41.27;4.63;;;;;;;4.62;100.00;99038.63;5121042;28;20604;-76
2022/01/22 09:29:31;;;;;;;31.70;4.23;;;;;;;4.56;100.00;99047.38;5121772;28;20619;-76
2022/01/22 09:31:57;;;;;;;37.20;3.70;;;;;;;4.67;100.00;99049.47;5123430;28;20613;-76
2022/01/22 09:34:26;;;;;;;24.03;3.63;;;;;;;4.63;100.00;99056.16;5122241;28;20619;-75
2022/01/22 09:36:52;;;;;;;42.90;4.50;;;;;;;4.66;100.00;99055.75;5119571;28;20593;-76
2022/01/22 09:39:19;;;;;;;39.47;4.47;;;;;;;4.69;100.00;99058.00;5119926;28;20611;-76
2022/01/22 09:41:46;;;;;;;39.60;4.70;;;;;;;4.58;100.00;99059.38;5122763;28;20641;-76
2022/01/22 09:44:13;;;;;;;56.97;4.70;;;;;;;4.57;100.00;99062.25;5123481;28;20598;-75
2022/01/22 09:46:40;;;;;;;62.20;5.33;;;;;;;4.67;100.00;99057.41;5119680;28;20603;-75
2022/01/22 09:49:07;;;;;;;54.23;5.30;;;;;;;4.60;100.00;99059.19;5120516;28;20620;-75
2022/01/22 09:51:35;;;;;;;48.93;5.00;;;;;;;4.75;100.00;99059.88;5121936;28;20612;-75
2022/01/22 09:54:02;;;;;;;49.93;5.37;;;;;;;4.76;100.00;99050.94;5121308;28;20612;-75
2022/01/22 09:56:31;;;;;;;61.00;5.93;;;;;;;4.77;100.00;99065.78;5119943;28;20638;-75
2022/01/22 09:58:58;;;;;;;36.37;4.67;;;;;;;4.89;100.00;99077.41;5120633;28;20593;-75
2022/01/22 10:01:28;;;;;;;29.47;3.90;;;;;;;4.93;100.00;99072.56;5121112;28;20626;-76
2022/01/22 10:03:56;;;;;;;37.13;3.93;;;;;;;4.85;100.00;99076.22;5124572;28;20626;-76
2022/01/22 10:06:25;;;;;;;26.93;3.00;;;;;;;4.76;100.00;99086.16;5122662;28;20596;-76
2022/01/22 10:09:05;;;;;;;38.10;4.03;;;;;;;4.83;100.00;99094.09;5120991;28;20630;-76
2022/01/22 10:11:32;;;;;;;23.90;3.80;;;;;;;4.82;100.00;99084.53;5123904;28;20596;-76
2022/01/22 10:13:59;;;;;;;30.80;4.10;;;;;;;4.75;100.00;99086.34;5123717;28;20587;-77
2022/01/22 10:16:27;;;;;;;46.40;5.03;;;;;;;4.82;100.00;99087.19;5121715;28;20588;-76
2022/01/22 10:19:19;;;;;;;38.87;4.10;;;;;;;4.87;100.00;99090.03;5120135;28;20608;-76
2022/01/22 10:21:48;;;;;;;38.53;4.40;;;;;;;4.87;100.00;99087.41;5115770;28;20631;-76
2022/01/22 10:24:46;;;;;;;22.00;2.97;;;;;;;5.01;100.00;99075.88;5121362;28;21726;-77
2022/01/22 10:27:30;;;;;;;42.17;4.47;;;;;;;5.01;100.00;99080.34;5062251;28;20621;-76
2022/01/22 10:30:01;;;;;;;48.57;4.70;;;;;;;4.97;100.00;99076.44;5112067;28;20941;-76
2022/01/22 10:32:39;;;;;;;41.43;4.70;;;;;;;4.89;100.00;99088.84;5110784;28;20626;-76
2022/01/22 10:35:09;;;;;;;31.40;3.90;;;;;;;4.87;100.00;99084.75;5112182;28;20604;-75
2022/01/22 10:37:36;;;;;;;29.37;3.80;;;;;;;4.88;100.00;99083.75;5122321;28;20600;-75
2022/01/22 10:40:27;;;;;;;32.10;4.60;;;;;;;5.18;100.00;99086.91;5123501;28;20592;-76
2022/01/22 10:43:15;;;;;;;41.07;4.40;;;;;;;5.02;100.00;99088.06;5118838;28;20656;-76
2022/01/22 10:45:43;;;;;;;38.83;5.07;;;;;;;4.98;100.00;99075.44;5118689;28;20977;-77
2022/01/22 10:48:15;;;;;;;34.90;4.40;;;;;;;4.99;100.00;99083.16;5118689;28;20604;-76
2022/01/22 10:50:42;;;;;;;31.17;3.90;;;;;;;5.08;100.00;99084.63;5118966;28;20615;-76
2022/01/22 10:53:09;;;;;;;30.17;3.70;;;;;;;4.99;100.00;99082.34;5123280;28;20611;-76
2022/01/22 10:56:00;;;;;;;25.33;3.43;;;;;;;4.95;100.00;99081.13;5114031;28;20613;-76
2022/01/22 10:58:27;;;;;;;45.93;4.83;;;;;;;4.87;100.00;99084.75;5120449;28;20612;-75
2022/01/22 11:01:02;;;;;;;55.47;5.40;;;;;;;4.86;100.00;99077.81;5118315;28;21034;-76
2022/01/22 11:03:29;;;;;;;25.73;4.20;;;;;;;5.05;100.00;99092.97;5120838;28;20612;-76
2022/01/22 11:05:57;;;;;;;27.10;4.03;;;;;;;5.04;100.00;99083.41;5123077;28;21140;-76
2022/01/22 11:08:24;;;;;;;42.97;4.47;;;;;;;5.07;100.00;99090.13;5121764;28;20611;-76
2022/01/22 11:10:53;;;;;;;52.20;5.30;;;;;;;5.09;100.00;99094.22;5118443;28;20601;-76
2022/01/22 11:13:20;;;;;;;18.67;2.93;;;;;;;5.17;100.00;99096.66;5118531;28;20593;-76
2022/01/22 11:15:51;;;;;;;18.43;2.70;;;;;;;5.10;100.00;99100.31;5121451;28;20588;-76
2022/01/22 11:18:19;;;;;;;32.07;4.27;;;;;;;4.97;100.00;99100.28;5121209;28;20608;-76
2022/01/22 11:20:48;;;;;;;60.93;6.10;;;;;;;4.93;100.00;99094.56;5118324;28;20609;-76
2022/01/22 11:23:18;;;;;;;67.73;5.80;;;;;;;5.00;100.00;99105.16;5123029;28;20599;-76
2022/01/22 11:25:45;;;;;;;18.73;3.50;;;;;;;5.02;100.00;99098.66;5118710;28;20609;-76
2022/01/22 11:28:14;;;;;;;31.03;3.93;;;;;;;5.12;100.00;99108.88;5118051;28;20629;-76
2022/01/22 11:30:46;;;;;;;48.17;5.33;;;;;;;5.12;100.00;99100.94;5121194;28;20594;-76
2022/01/22 11:33:17;;;;;;;34.37;4.70;;;;;;;5.09;100.00;99098.69;5122197;28;20603;-76
2022/01/22 11:36:03;;;;;;;34.17;3.30;;;;;;;5.13;100.00;99099.94;5119278;28;20589;-76
2022/01/22 11:38:34;;;;;;;44.07;5.13;;;;;;;5.11;100.00;99102.75;5121024;28;20607;-76
2022/01/22 11:41:06;;;;;;;40.63;5.20;;;;;;;5.06;100.00;99099.91;5121640;28;20604;-77
2022/01/22 11:44:03;;;;;;;20.13;3.80;;;;;;;5.06;100.00;99094.59;5119420;28;20593;-76
2022/01/22 11:46:34;;;;;;;41.97;4.97;;;;;;;5.05;100.00;99097.44;5119476;28;20596;-76
2022/01/22 11:49:19;;;;;;;47.43;5.27;;;;;;;5.07;100.00;99112.13;5122932;28;20608;-76
2022/01/22 11:51:48;;;;;;;17.70;3.10;;;;;;;5.08;100.00;99105.81;5110743;28;20630;-76
2022/01/22 11:54:16;;;;;;;24.63;3.90;;;;;;;5.05;100.00;99110.69;5115843;28;20604;-76
2022/01/22 11:56:46;;;;;;;53.70;6.17;;;;;;;5.14;100.00;99107.66;5117999;28;20613;-76
2022/01/22 11:59:27;;;;;;;24.00;4.17;;;;;;;5.03;100.00;99102.94;5119177;28;20623;-76
2022/01/22 12:02:03;;;;;;;29.30;4.07;;;;;;;5.19;100.00;99107.06;5109957;28;20638;-76
2022/01/22 12:05:01;;;;;;;16.63;3.17;;;;;;;5.13;100.00;99098.09;5112962;28;20631;-76
2022/01/22 12:07:29;;;;;;;32.47;4.30;;;;;;;5.08;100.00;99102.34;5113466;28;20634;-76
2022/01/22 12:10:35;;;;;;;39.30;4.40;;;;;;;5.24;100.00;99104.63;5121695;28;20631;-77
2022/01/22 12:16:12;;;;;;;37.97;5.13;;;;;;;5.14;100.00;99107.66;5123400;28;20596;-76
2022/01/22 12:18:45;;;;;;;66.90;5.63;;;;;;;5.05;100.00;99113.31;5125379;28;20592;-76
2022/01/22 12:21:33;;;;;;;44.00;4.93;;;;;;;5.01;100.00;99112.09;5126149;28;20607;-76
2022/01/22 12:24:02;;;;;;;72.40;6.67;;;;;;;4.93;100.00;99102.50;5118754;28;20613;-76
2022/01/22 12:26:50;;;;;;;32.50;4.83;;;;;;;5.15;100.00;99098.72;5122540;28;20615;-77
2022/01/22 12:29:36;;;;;;;29.77;3.97;;;;;;;5.18;100.00;99098.31;5122613;28;20635;-76
2022/01/22 12:32:27;;;;;;;45.03;5.50;;;;;;;5.14;100.00;99112.94;5122920;28;20591;-76
2022/01/22 12:35:07;;;;;;;34.53;4.47;;;;;;;5.13;100.00;99106.03;5122505;28;20605;-76
2022/01/22 12:37:39;;;;;;;19.03;4.27;;;;;;;5.13;100.00;99111.34;5125090;28;20628;-77